Time;durP1;ratioP1;P1;durP2;ratioP2;P2;SDS_P1;SDS_P2;PMS_P1;PMS_P2;Temp;Humidity;BMP_temperature;BMP_pressure;BME280_temperature;BME280_humidity;BME280_pressure;Samples;Min_cycle;Max_cycle;Signal;HPM_P1;HPM_P2
2024/03/22 00:01:05;;;;;;;10.33;8.20;;;;;;;10.00;89.92;98811.19;4046678;29;20687;-85
2024/03/22 00:03:06;;;;;;;8.57;7.30;;;;;;;9.97;89.73;98806.97;4028888;29;20625;-85
2024/03/22 00:05:10;;;;;;;10.93;8.47;;;;;;;9.96;89.36;98804.44;4043990;29;20619;-85
2024/03/22 00:07:11;;;;;;;13.00;8.33;;;;;;;9.93;89.71;98805.44;4032050;29;21168;-85
2024/03/22 00:09:14;;;;;;;11.53;8.87;;;;;;;9.91;89.41;98801.22;4045722;29;20630;-85
2024/03/22 00:11:16;;;;;;;12.00;8.77;;;;;;;9.89;89.57;98795.25;4058749;29;20631;-84
2024/03/22 00:13:19;;;;;;;11.60;7.90;;;;;;;9.86;89.58;98791.06;4058645;29;20633;-84
2024/03/22 00:15:20;;;;;;;12.57;8.57;;;;;;;9.82;89.80;98783.50;4046681;29;21011;-85
2024/03/22 00:17:23;;;;;;;12.13;8.20;;;;;;;9.81;88.94;98783.56;4034123;29;20696;-85
2024/03/22 00:19:24;;;;;;;10.17;7.50;;;;;;;9.77;89.91;98779.44;4047842;29;20683;-85
2024/03/22 00:21:28;;;;;;;10.50;7.53;;;;;;;9.75;89.85;98789.13;4063256;29;21264;-84
2024/03/22 00:23:30;;;;;;;9.07;7.40;;;;;;;9.73;90.06;98793.56;4054790;29;20983;-84
2024/03/22 00:25:33;;;;;;;10.07;7.60;;;;;;;9.71;90.15;98785.84;4073015;29;20636;-84
2024/03/22 00:27:34;;;;;;;10.30;7.93;;;;;;;9.69;89.91;98785.06;4060828;29;20717;-84
2024/03/22 00:29:36;;;;;;;12.23;8.13;;;;;;;9.68;89.92;98787.75;4048107;29;20627;-84
2024/03/22 00:31:38;;;;;;;11.00;7.90;;;;;;;9.66;89.96;98795.66;4040762;29;20604;-85
2024/03/22 00:33:41;;;;;;;10.37;7.50;;;;;;;9.64;90.38;98794.91;4045868;29;20620;-84
2024/03/22 00:35:42;;;;;;;12.33;7.97;;;;;;;9.58;89.58;98791.78;4058320;29;21131;-84
2024/03/22 00:37:47;;;;;;;10.80;8.37;;;;;;;9.48;89.61;98795.78;4046098;29;21023;-84
2024/03/22 00:39:48;;;;;;;13.70;7.40;;;;;;;9.44;89.41;98789.91;4059877;29;20639;-84
2024/03/22 00:41:50;;;;;;;10.27;6.90;;;;;;;9.42;90.07;98785.69;4060663;29;20627;-84
2024/03/22 00:43:52;;;;;;;11.47;7.37;;;;;;;9.40;89.84;98784.94;4045127;29;21019;-84
2024/03/22 00:45:54;;;;;;;8.13;6.37;;;;;;;9.39;89.98;98786.69;4060036;29;20630;-84
2024/03/22 00:47:56;;;;;;;9.30;6.67;;;;;;;9.36;90.93;98783.41;4056690;29;20654;-84
2024/03/22 00:49:58;;;;;;;13.20;6.93;;;;;;;9.36;90.70;98779.97;4054561;29;20647;-85
2024/03/22 00:51:59;;;;;;;10.10;6.80;;;;;;;9.32;90.85;98768.91;4047579;29;20632;-84
2024/03/22 00:54:04;;;;;;;9.03;6.60;;;;;;;9.27;90.46;98765.66;4031807;29;20629;-83
2024/03/22 00:56:06;;;;;;;10.23;6.90;;;;;;;9.27;90.67;98768.28;4058759;29;20624;-84
2024/03/22 00:58:09;;;;;;;8.20;6.20;;;;;;;9.27;90.42;98759.63;4045455;29;20616;-83
2024/03/22 01:00:11;;;;;;;12.20;7.43;;;;;;;9.22;90.36;98759.88;4045517;29;20624;-84
2024/03/22 01:02:13;;;;;;;8.50;6.20;;;;;;;9.18;90.47;98754.91;4060893;29;20622;-85
2024/03/22 01:04:15;;;;;;;9.60;6.87;;;;;;;9.14;90.49;98743.84;4061580;29;20726;-83
2024/03/22 01:06:23;;;;;;;7.87;6.73;;;;;;;9.09;89.04;98742.38;4045303;29;20675;-84
2024/03/22 01:08:25;;;;;;;9.40;7.63;;;;;;;9.01;89.72;98747.16;4060041;29;20676;-84
2024/03/22 01:10:28;;;;;;;11.53;6.90;;;;;;;8.99;90.50;98741.16;4060158;29;21005;-84
2024/03/22 01:12:31;;;;;;;8.15;6.25;;;;;;;8.94;90.02;98741.44;4056986;29;21041;-85
2024/03/22 01:14:33;;;;;;;10.13;6.10;;;;;;;8.94;89.50;98732.75;4056907;29;20677;-84
2024/03/22 01:16:34;;;;;;;11.00;6.57;;;;;;;8.92;89.48;98741.59;4062140;29;20207;-83
2024/03/22 01:18:36;;;;;;;10.15;6.55;;;;;;;8.91;89.33;98734.69;4071734;29;20754;-85
2024/03/22 01:20:38;;;;;;;9.40;6.22;;;;;;;8.90;89.89;98733.88;4055577;29;20218;-84
2024/03/22 01:22:40;;;;;;;9.98;7.63;;;;;;;8.92;90.71;98738.03;4042561;29;20204;-84
2024/03/22 01:24:41;;;;;;;12.38;8.00;;;;;;;8.95;91.90;98732.69;4039739;29;21390;-84
2024/03/22 01:26:45;;;;;;;9.73;7.47;;;;;;;8.96;90.83;98728.34;4025385;29;20683;-84
2024/03/22 01:28:47;;;;;;;10.33;7.27;;;;;;;8.93;90.51;98720.69;4041343;29;20292;-85
2024/03/22 01:30:49;;;;;;;9.30;6.70;;;;;;;8.87;91.31;98717.56;4043379;29;20647;-83
2024/03/22 01:32:50;;;;;;;10.80;7.50;;;;;;;8.88;90.76;98729.66;4042659;29;20212;-84
2024/03/22 01:34:53;;;;;;;10.27;7.05;;;;;;;8.87;90.58;98725.34;4058870;29;20202;-84
2024/03/22 01:36:54;;;;;;;10.20;7.13;;;;;;;8.87;91.13;98727.94;4060277;29;20214;-84
2024/03/22 01:38:56;;;;;;;9.60;7.30;;;;;;;8.83;90.52;98727.28;4044058;29;20235;-84
2024/03/22 01:40:58;;;;;;;11.05;7.32;;;;;;;8.77;90.71;98727.59;4029392;29;20215;-85
2024/03/22 01:43:02;;;;;;;9.67;6.10;;;;;;;8.64;89.92;98726.53;4048058;29;20617;-85
2024/03/22 01:45:04;;;;;;;8.20;6.13;;;;;;;8.55;88.73;98736.53;4067891;29;20720;-84
2024/03/22 01:47:05;;;;;;;9.90;6.22;;;;;;;8.51;89.08;98725.47;4045064;29;21429;-84
2024/03/22 01:49:08;;;;;;;9.98;6.72;;;;;;;8.48;90.30;98725.63;4022660;29;20494;-84
2024/03/22 01:51:10;;;;;;;8.00;6.20;;;;;;;8.47;88.99;98723.09;4037885;29;20208;-84
2024/03/22 01:53:13;;;;;;;9.63;7.00;;;;;;;8.47;90.74;98725.69;4042863;29;20903;-85
2024/03/22 01:55:14;;;;;;;8.88;6.35;;;;;;;8.45;90.93;98725.78;4043596;29;20707;-84
2024/03/22 01:57:17;;;;;;;8.77;6.60;;;;;;;8.43;90.68;98716.38;4041603;29;20195;-84
2024/03/22 01:59:21;;;;;;;10.65;7.40;;;;;;;8.41;90.44;98713.00;4045982;29;20883;-84
2024/03/22 02:01:22;;;;;;;9.97;6.03;;;;;;;8.42;91.81;98721.63;4059126;29;20199;-84
2024/03/22 02:03:25;;;;;;;8.80;6.30;;;;;;;8.42;90.73;98721.63;4044015;29;20995;-84
2024/03/22 02:05:26;;;;;;;7.85;6.50;;;;;;;8.41;89.56;98714.78;4045118;29;21305;-85
2024/03/22 02:07:31;;;;;;;11.38;6.55;;;;;;;8.40;90.71;98710.50;4059041;29;20227;-85
2024/03/22 02:09:32;;;;;;;9.32;6.43;;;;;;;8.36;90.75;98712.41;4023283;29;20220;-85
2024/03/22 02:11:34;;;;;;;9.83;6.40;;;;;;;8.36;90.63;98709.81;4031751;29;20219;-84
2024/03/22 02:13:37;;;;;;;11.73;6.07;;;;;;;8.36;91.36;98707.22;4060232;29;21303;-85
2024/03/22 02:15:40;;;;;;;10.17;6.73;;;;;;;8.33;90.53;98699.56;4069256;29;20626;-84
2024/03/22 02:17:43;;;;;;;8.50;5.70;;;;;;;8.34;90.39;98696.03;4054055;29;20620;-83
2024/03/22 02:19:45;;;;;;;7.80;6.00;;;;;;;8.29;89.95;98690.22;4039897;29;20640;-84
2024/03/22 02:21:47;;;;;;;8.40;6.43;;;;;;;8.28;91.28;98696.34;4040432;29;20628;-84
2024/03/22 02:23:50;;;;;;;8.57;6.35;;;;;;;8.26;90.11;98692.16;4042461;29;20268;-84
2024/03/22 02:25:52;;;;;;;11.52;6.40;;;;;;;8.25;91.31;98693.88;4038794;29;20291;-84
2024/03/22 02:27:54;;;;;;;9.50;6.40;;;;;;;8.21;91.60;98689.78;4044566;29;20233;-84
2024/03/22 02:29:56;;;;;;;7.70;5.60;;;;;;;8.20;91.73;98685.50;4045258;29;21052;-84
2024/03/22 02:31:58;;;;;;;7.28;6.15;;;;;;;8.15;90.85;98684.06;4026924;29;20709;-84
2024/03/22 02:33:59;;;;;;;8.32;6.45;;;;;;;8.12;90.11;98679.84;4051165;29;20571;-84
2024/03/22 02:36:01;;;;;;;8.03;6.33;;;;;;;8.12;91.19;98679.00;4060202;29;20214;-84
2024/03/22 02:38:03;;;;;;;7.80;6.53;;;;;;;8.10;91.46;98676.44;4059653;29;20613;-85
2024/03/22 02:40:08;;;;;;;8.35;6.40;;;;;;;8.09;91.64;98674.75;4059531;29;20628;-84
2024/03/22 02:42:09;;;;;;;8.88;7.20;;;;;;;8.10;92.15;98678.19;4028189;29;20204;-85
2024/03/22 02:44:12;;;;;;;10.13;7.50;;;;;;;8.09;91.56;98682.56;4059655;29;20211;-84
2024/03/22 02:46:14;;;;;;;9.85;6.88;;;;;;;8.09;91.51;98677.34;4045716;29;20744;-84
2024/03/22 02:48:16;;;;;;;9.98;6.30;;;;;;;8.03;91.85;98664.66;4027953;29;20236;-84
2024/03/22 02:50:17;;;;;;;9.38;6.07;;;;;;;8.01;91.05;98669.13;4028566;29;20204;-84
2024/03/22 02:52:20;;;;;;;11.25;6.28;;;;;;;8.00;90.50;98664.81;4029989;29;20429;-84
2024/03/22 02:54:21;;;;;;;11.93;7.10;;;;;;;7.99;90.35;98659.69;4071680;29;20243;-84
2024/03/22 02:56:23;;;;;;;7.60;6.43;;;;;;;7.96;91.75;98665.88;4057595;29;20257;-84
2024/03/22 02:58:26;;;;;;;9.05;7.13;;;;;;;7.91;90.88;98659.25;4053937;29;20276;-83
2024/03/22 03:00:28;;;;;;;6.88;6.18;;;;;;;7.90;90.77;98656.72;4024180;29;20213;-84
2024/03/22 03:02:30;;;;;;;9.15;6.43;;;;;;;7.88;90.96;98645.53;4044943;29;20938;-84
2024/03/22 03:04:32;;;;;;;7.60;6.30;;;;;;;7.88;91.00;98649.00;4046179;29;20859;-84
2024/03/22 03:06:34;;;;;;;7.85;5.78;;;;;;;7.88;91.22;98645.53;4053719;29;20278;-84
2024/03/22 03:08:35;;;;;;;7.70;6.40;;;;;;;7.89;91.88;98649.84;4061179;29;20231;-84
2024/03/22 03:10:37;;;;;;;8.43;6.18;;;;;;;7.91;91.28;98653.19;4071251;29;20213;-84
2024/03/22 03:12:40;;;;;;;9.63;6.60;;;;;;;7.90;92.47;98656.72;4049660;29;20719;-83
2024/03/22 03:14:42;;;;;;;10.13;6.10;;;;;;;7.87;91.02;98656.88;4056057;29;20767;-85
2024/03/22 03:16:44;;;;;;;8.32;6.57;;;;;;;7.81;91.19;98652.81;4065088;29;20207;-85
2024/03/22 03:18:46;;;;;;;8.82;6.03;;;;;;;7.77;91.03;98642.63;4028385;29;20216;-84
2024/03/22 03:20:47;;;;;;;8.40;6.22;;;;;;;7.77;90.14;98650.44;4029361;29;20267;-84
2024/03/22 03:22:50;;;;;;;11.82;6.10;;;;;;;7.74;90.46;98648.84;4041479;29;20728;-84
2024/03/22 03:24:51;;;;;;;9.85;6.22;;;;;;;7.71;90.49;98642.94;4059684;29;20233;-84
2024/03/22 03:26:54;;;;;;;13.88;6.25;;;;;;;7.67;91.06;98649.22;4057715;29;20234;-84
2024/03/22 03:28:56;;;;;;;7.63;5.45;;;;;;;7.63;90.71;98645.06;4043509;29;20239;-83
2024/03/22 03:30:59;;;;;;;7.85;5.80;;;;;;;7.59;90.56;98646.97;4027492;29;20205;-84
2024/03/22 03:33:00;;;;;;;8.05;5.60;;;;;;;7.56;90.33;98636.75;4053051;29;20203;-84
2024/03/22 03:35:02;;;;;;;7.13;5.45;;;;;;;7.57;91.24;98642.75;4039421;29;20205;-84
2024/03/22 03:37:05;;;;;;;7.47;5.40;;;;;;;7.57;90.65;98640.16;4057971;29;20248;-83
2024/03/22 03:39:08;;;;;;;7.45;5.95;;;;;;;7.56;91.10;98646.25;4045053;29;20211;-84
2024/03/22 03:41:09;;;;;;;9.80;5.90;;;;;;;7.56;91.12;98643.66;4044996;29;20247;-84
2024/03/22 03:43:12;;;;;;;7.25;5.38;;;;;;;7.53;91.58;98636.03;4060667;29;20246;-84
2024/03/22 03:45:14;;;;;;;8.80;5.53;;;;;;;7.52;90.73;98642.97;4055483;29;20243;-84
2024/03/22 03:47:17;;;;;;;8.32;6.20;;;;;;;7.52;90.94;98645.56;4046199;29;20207;-84
2024/03/22 03:49:18;;;;;;;7.38;5.80;;;;;;;7.51;91.52;98643.88;4045681;29;20223;-84
2024/03/22 03:51:21;;;;;;;12.77;6.18;;;;;;;7.49;91.42;98643.13;4062878;29;20481;-84
2024/03/22 03:53:22;;;;;;;6.60;5.30;;;;;;;7.49;90.92;98637.09;4043526;29;20238;-84
2024/03/22 03:55:24;;;;;;;8.10;5.38;;;;;;;7.47;90.08;98636.31;4046235;29;20685;-84
2024/03/22 03:57:25;;;;;;;8.23;5.40;;;;;;;7.46;91.10;98639.84;4059832;29;20203;-85
2024/03/22 03:59:28;;;;;;;6.63;5.68;;;;;;;7.45;91.32;98635.56;4030157;29;20889;-84
2024/03/22 04:01:31;;;;;;;6.65;5.30;;;;;;;7.45;91.38;98629.53;4062382;29;20202;-83
2024/03/22 04:03:33;;;;;;;7.40;5.90;;;;;;;7.46;91.25;98632.06;4042990;29;20293;-83
2024/03/22 04:05:34;;;;;;;7.93;5.80;;;;;;;7.45;92.46;98632.13;4046210;29;20224;-84
2024/03/22 04:07:36;;;;;;;7.72;5.47;;;;;;;7.45;91.96;98632.97;4045261;29;20210;-83
2024/03/22 04:09:38;;;;;;;8.90;5.40;;;;;;;7.45;90.92;98638.16;4044148;29;20250;-84
2024/03/22 04:11:40;;;;;;;7.15;5.45;;;;;;;7.39;90.93;98628.06;4056982;29;20213;-83
2024/03/22 04:13:41;;;;;;;8.05;5.50;;;;;;;7.39;90.84;98630.66;4044465;29;20804;-84
2024/03/22 04:15:44;;;;;;;10.75;5.60;;;;;;;7.37;90.83;98634.25;4058886;29;20207;-83
2024/03/22 04:17:47;;;;;;;7.35;5.75;;;;;;;7.34;90.50;98635.22;4047069;29;20215;-83
2024/03/22 04:19:51;;;;;;;12.90;5.53;;;;;;;7.35;91.28;98636.06;4074268;29;20676;-84
2024/03/22 04:21:53;;;;;;;8.15;5.72;;;;;;;7.32;91.03;98626.69;4028943;29;20211;-85
2024/03/22 04:23:55;;;;;;;7.65;4.82;;;;;;;7.32;90.77;98634.47;4041871;29;20231;-84
2024/03/22 04:25:57;;;;;;;6.20;5.00;;;;;;;7.31;90.58;98626.75;4046539;29;20196;-84
2024/03/22 04:27:59;;;;;;;8.10;5.05;;;;;;;7.32;91.17;98631.00;4046843;29;20668;-84
2024/03/22 04:30:01;;;;;;;7.18;4.97;;;;;;;7.29;90.32;98632.03;4044544;29;20231;-84
2024/03/22 04:32:05;;;;;;;9.18;5.35;;;;;;;7.29;90.60;98636.34;4030505;29;20212;-83
2024/03/22 04:34:07;;;;;;;7.88;5.93;;;;;;;7.30;91.32;98632.84;4029083;29;20217;-83
2024/03/22 04:36:10;;;;;;;9.68;5.50;;;;;;;7.29;90.84;98637.22;4044724;29;20207;-85
2024/03/22 04:38:12;;;;;;;8.75;4.75;;;;;;;7.34;91.20;98637.81;4074844;29;20202;-84
2024/03/22 04:40:14;;;;;;;8.23;5.70;;;;;;;7.33;92.27;98632.72;4030665;29;20261;-84
2024/03/22 04:42:17;;;;;;;9.48;5.90;;;;;;;7.35;92.99;98642.13;4044328;29;20201;-84
2024/03/22 04:44:18;;;;;;;9.48;6.10;;;;;;;7.37;92.24;98639.44;4060471;29;20210;-84
2024/03/22 04:46:21;;;;;;;10.65;5.63;;;;;;;7.36;92.25;98636.00;4032275;29;20745;-84
2024/03/22 04:48:23;;;;;;;6.22;5.40;;;;;;;7.32;91.97;98642.25;4046764;29;20434;-84
2024/03/22 04:50:26;;;;;;;7.45;5.60;;;;;;;7.33;91.70;98643.09;4057748;29;20202;-84
2024/03/22 04:52:28;;;;;;;8.90;6.00;;;;;;;7.33;92.40;98643.91;4044838;29;20215;-85
2024/03/22 04:54:30;;;;;;;8.55;5.82;;;;;;;7.33;92.56;98641.31;4059522;29;20703;-84
2024/03/22 04:56:32;;;;;;;7.55;6.07;;;;;;;7.35;92.38;98638.66;4043442;29;20207;-84
2024/03/22 04:58:34;;;;;;;9.05;6.03;;;;;;;7.36;92.83;98648.13;4034526;29;20211;-83
2024/03/22 05:00:35;;;;;;;7.78;5.88;;;;;;;7.37;91.86;98642.88;4044356;29;20207;-84
2024/03/22 05:02:38;;;;;;;7.05;5.78;;;;;;;7.38;91.62;98639.38;4071910;29;20202;-84
2024/03/22 05:04:39;;;;;;;10.80;6.50;;;;;;;7.40;92.02;98637.53;4053266;29;20202;-84
2024/03/22 05:06:43;;;;;;;8.65;6.20;;;;;;;7.41;92.81;98640.97;4042872;29;20232;-84
2024/03/22 05:08:44;;;;;;;10.38;6.43;;;;;;;7.39;92.19;98641.03;4043724;29;20227;-84
2024/03/22 05:10:47;;;;;;;8.35;6.10;;;;;;;7.35;92.18;98636.94;4059595;29;20207;-84
2024/03/22 05:12:48;;;;;;;10.40;6.60;;;;;;;7.34;93.04;98634.41;4044102;29;20800;-84
2024/03/22 05:14:49;;;;;;;10.85;6.40;;;;;;;7.34;91.77;98634.41;4045312;29;20215;-85
2024/03/22 05:16:52;;;;;;;8.95;6.53;;;;;;;7.36;93.20;98638.59;4061211;29;20613;-85
2024/03/22 05:18:53;;;;;;;9.35;7.22;;;;;;;7.39;92.34;98640.22;4038050;29;20212;-84
2024/03/22 05:20:55;;;;;;;8.52;5.80;;;;;;;7.38;93.25;98635.91;4052863;29;20226;-84
2024/03/22 05:23:04;;;;;;;9.05;6.43;;;;;;;7.40;94.10;98634.94;4050882;29;20314;-84
2024/03/22 05:25:10;;;;;;;14.02;6.50;;;;;;;7.41;94.19;98634.00;4057203;29;20210;-84
2024/03/22 05:27:13;;;;;;;10.40;6.35;;;;;;;7.43;94.04;98624.41;4047430;29;20214;-84
2024/03/22 05:29:15;;;;;;;8.52;5.97;;;;;;;7.45;93.96;98632.97;4048521;29;20303;-84
2024/03/22 05:31:16;;;;;;;10.57;6.88;;;;;;;7.49;94.34;98637.09;4060113;29;20831;-85
2024/03/22 05:33:18;;;;;;;11.63;6.45;;;;;;;7.52;94.22;98634.38;4047599;29;20211;-84
2024/03/22 05:35:19;;;;;;;12.63;6.55;;;;;;;7.56;94.07;98634.16;4046956;29;20709;-84
2024/03/22 05:37:22;;;;;;;10.50;7.50;;;;;;;7.62;93.73;98636.44;4042990;29;20215;-84
2024/03/22 05:39:25;;;;;;;11.07;6.43;;;;;;;7.64;93.42;98634.63;4053461;29;20232;-84
2024/03/22 05:41:26;;;;;;;11.95;7.20;;;;;;;7.72;93.37;98629.88;4029487;29;20219;-84
2024/03/22 05:43:28;;;;;;;10.15;6.93;;;;;;;7.77;93.41;98640.03;4045463;29;20208;-83
2024/03/22 05:45:30;;;;;;;12.57;7.65;;;;;;;7.86;93.79;98635.25;4054549;29;20570;-84
2024/03/22 05:47:32;;;;;;;10.40;7.35;;;;;;;7.96;92.08;98630.47;4043107;29;20216;-85
2024/03/22 05:49:34;;;;;;;9.00;6.47;;;;;;;8.08;92.84;98625.50;4040608;29;20756;-84
2024/03/22 05:51:36;;;;;;;10.63;7.50;;;;;;;8.18;92.26;98629.34;4070568;29;20791;-84
2024/03/22 05:53:38;;;;;;;10.13;6.60;;;;;;;8.30;91.09;98623.50;4040137;29;20205;-84
2024/03/22 05:55:41;;;;;;;11.50;7.13;;;;;;;8.38;91.58;98624.81;4057525;29;20681;-85
2024/03/22 05:57:42;;;;;;;11.82;6.85;;;;;;;8.40;90.67;98622.13;4051780;29;20203;-84
2024/03/22 05:59:45;;;;;;;11.05;7.07;;;;;;;8.37;91.72;98612.72;4050970;29;24492;-84
2024/03/22 06:01:46;;;;;;;10.70;7.53;;;;;;;8.34;91.16;98612.06;4057616;29;20206;-84
2024/03/22 06:03:49;;;;;;;10.60;7.47;;;;;;;8.33;91.27;98610.34;4058243;29;20209;-84
2024/03/22 06:05:54;;;;;;;10.02;7.40;;;;;;;8.36;91.99;98613.66;4044765;29;20235;-84
2024/03/22 06:07:57;;;;;;;12.43;7.70;;;;;;;8.35;91.00;98609.38;4031215;29;20211;-84
2024/03/22 06:09:58;;;;;;;10.88;7.43;;;;;;;8.39;90.63;98610.91;4058420;29;20257;-83
2024/03/22 06:12:03;;;;;;;11.85;7.70;;;;;;;8.38;90.57;98617.00;4044954;29;20207;-83
2024/03/22 06:14:04;;;;;;;11.07;6.90;;;;;;;8.41;92.58;98614.25;4042879;29;20218;-83
2024/03/22 06:16:06;;;;;;;14.23;8.98;;;;;;;8.45;92.11;98619.22;4045383;29;21296;-83
2024/03/22 06:18:08;;;;;;;11.85;8.40;;;;;;;8.49;90.59;98606.91;4043983;29;20950;-87
2024/03/22 06:20:12;;;;;;;13.33;8.10;;;;;;;8.53;91.16;98613.63;4043265;29;20200;-86
2024/03/22 06:22:14;;;;;;;11.60;7.18;;;;;;;8.58;92.11;98609.03;4055323;29;20627;-86
2024/03/22 06:24:16;;;;;;;9.75;6.72;;;;;;;8.62;91.38;98607.94;4045918;29;20238;-84
2024/03/22 06:26:18;;;;;;;10.80;7.88;;;;;;;8.69;90.72;98604.94;4055190;29;20242;-85
2024/03/22 06:28:22;;;;;;;10.43;7.70;;;;;;;8.76;90.44;98613.25;4055055;29;20634;-85
2024/03/22 06:30:24;;;;;;;9.20;6.55;;;;;;;8.79;90.64;98605.28;4059120;29;20226;-84
2024/03/22 06:32:26;;;;;;;9.65;6.75;;;;;;;8.79;89.83;98603.53;4041683;29;20589;-84
2024/03/22 06:34:28;;;;;;;11.85;8.15;;;;;;;8.85;91.00;98604.97;4046959;29;20215;-84
2024/03/22 06:36:32;;;;;;;10.25;7.93;;;;;;;8.88;90.68;98603.03;4063160;29;20245;-85
2024/03/22 06:38:33;;;;;;;9.02;6.65;;;;;;;8.94;90.94;98603.56;4046097;29;20298;-85
2024/03/22 06:40:35;;;;;;;9.95;7.35;;;;;;;9.11;90.75;98595.69;4058301;29;21619;-83
2024/03/22 06:42:36;;;;;;;11.37;7.80;;;;;;;9.32;89.82;98607.53;4061584;29;20681;-84
2024/03/22 06:44:41;;;;;;;13.00;7.80;;;;;;;9.51;89.49;98609.00;4058334;29;20645;-86
2024/03/22 06:46:42;;;;;;;11.25;8.00;;;;;;;9.82;89.00;98613.31;4044720;29;20868;-83
2024/03/22 06:48:44;;;;;;;12.30;7.55;;;;;;;10.08;88.43;98614.38;4061881;29;20690;-83
2024/03/22 06:50:45;;;;;;;10.93;7.25;;;;;;;10.30;88.01;98617.44;4043273;29;20212;-83
2024/03/22 06:52:51;;;;;;;11.10;8.53;;;;;;;10.59;88.29;98613.91;4062500;29;20254;-83
2024/03/22 06:54:53;;;;;;;10.75;7.80;;;;;;;10.80;85.82;98616.91;4054683;29;20638;-84
2024/03/22 06:56:55;;;;;;;13.15;9.00;;;;;;;11.01;87.00;98622.59;4072547;29;20243;-83
2024/03/22 06:58:56;;;;;;;12.67;9.10;;;;;;;11.18;85.39;98620.59;4060971;29;20331;-84
2024/03/22 07:01:00;;;;;;;14.97;8.67;;;;;;;11.39;85.31;98619.25;4058704;29;20629;-84
2024/03/22 07:03:02;;;;;;;11.50;8.20;;;;;;;11.57;84.77;98615.50;4030587;29;21064;-83
2024/03/22 07:05:06;;;;;;;11.47;8.37;;;;;;;11.66;82.47;98623.59;4065859;29;21037;-83
2024/03/22 07:07:08;;;;;;;14.43;8.53;;;;;;;11.72;82.80;98617.97;4063260;29;20684;-83
2024/03/22 07:09:10;;;;;;;11.77;8.50;;;;;;;11.81;82.65;98609.53;4058764;29;20650;-83
2024/03/22 07:11:11;;;;;;;11.33;8.70;;;;;;;12.01;85.04;98612.56;4033559;29;20669;-83
2024/03/22 07:13:12;;;;;;;14.00;9.57;;;;;;;12.17;81.69;98605.34;4043567;29;20631;-82
2024/03/22 07:15:14;;;;;;;12.30;8.77;;;;;;;12.37;82.33;98615.31;4061174;29;21040;-82
2024/03/22 07:17:17;;;;;;;12.87;8.73;;;;;;;12.55;82.65;98612.28;4062941;29;20627;-85
2024/03/22 07:19:20;;;;;;;12.23;8.23;;;;;;;12.71;82.31;98613.75;4045223;29;20690;-84
2024/03/22 07:21:21;;;;;;;14.33;9.63;;;;;;;12.90;82.62;98611.59;4075967;29;20664;-85
2024/03/22 07:23:23;;;;;;;12.80;9.27;;;;;;;13.05;82.71;98600.06;4057598;29;20639;-86
2024/03/22 07:25:25;;;;;;;16.63;11.40;;;;;;;13.28;84.23;98607.97;4029429;29;20651;-84
2024/03/22 07:27:29;;;;;;;34.57;24.10;;;;;;;13.48;83.08;98612.63;4065584;29;20619;-85
2024/03/22 07:29:30;;;;;;;27.07;13.10;;;;;;;13.61;82.75;98607.34;4074688;29;20694;-84
2024/03/22 07:31:33;;;;;;;15.03;10.60;;;;;;;13.76;81.36;98610.53;4044685;29;21037;-85
2024/03/22 07:33:36;;;;;;;18.50;11.20;;;;;;;13.95;81.70;98608.25;4049053;29;20628;-84
2024/03/22 07:35:39;;;;;;;13.80;11.00;;;;;;;14.14;80.83;98614.66;4076242;29;21164;-85
2024/03/22 07:37:41;;;;;;;15.80;9.37;;;;;;;14.19;77.79;98609.91;4049010;29;20639;-84
2024/03/22 07:39:43;;;;;;;13.47;9.93;;;;;;;14.29;78.94;98603.03;4064076;29;20675;-84
2024/03/22 07:41:44;;;;;;;13.53;11.27;;;;;;;14.46;80.18;98607.00;4033851;29;20706;-84
2024/03/22 07:43:47;;;;;;;18.03;12.10;;;;;;;14.60;79.39;98597.97;4048749;29;20628;-84
2024/03/22 07:45:49;;;;;;;14.30;11.93;;;;;;;14.85;79.99;98603.00;4028393;29;20626;-84
2024/03/22 07:47:51;;;;;;;16.37;12.43;;;;;;;15.03;80.14;98601.56;4036878;29;20709;-84
2024/03/22 07:49:54;;;;;;;17.60;11.73;;;;;;;15.18;81.16;98600.41;4042661;29;20663;-83
2024/03/22 07:51:56;;;;;;;15.37;11.70;;;;;;;15.42;82.06;98603.75;4061564;29;20691;-83
2024/03/22 07:53:57;;;;;;;21.73;13.00;;;;;;;15.60;80.72;98609.19;4027413;29;20632;-83
2024/03/22 07:56:00;;;;;;;20.13;12.60;;;;;;;15.76;81.23;98609.63;4062486;29;21239;-84
2024/03/22 07:58:01;;;;;;;17.40;12.73;;;;;;;15.95;78.36;98603.72;4060589;29;20739;-84
2024/03/22 08:00:04;;;;;;;15.53;12.70;;;;;;;16.14;78.69;98602.09;4063385;29;21059;-84
2024/03/22 08:02:12;;;;;;;14.80;11.97;;;;;;;16.32;75.89;98611.97;4062806;29;20629;-83
2024/03/22 08:04:15;;;;;;;15.97;12.90;;;;;;;16.52;78.57;98596.19;4045625;29;20638;-83
2024/03/22 08:06:18;;;;;;;16.20;12.63;;;;;;;16.73;75.26;98606.69;4045621;29;20657;-83
2024/03/22 08:08:22;;;;;;;16.50;13.00;;;;;;;17.00;78.12;98605.16;4048268;29;20633;-84
2024/03/22 08:10:24;;;;;;;18.50;13.87;;;;;;;17.28;77.24;98613.25;4043551;29;20655;-83
2024/03/22 08:12:26;;;;;;;15.00;12.60;;;;;;;17.49;75.50;98609.56;4047920;29;20631;-83
2024/03/22 08:14:27;;;;;;;15.07;11.53;;;;;;;17.43;73.38;98605.81;4040734;29;20674;-82
2024/03/22 08:16:30;;;;;;;12.50;10.00;;;;;;;17.37;71.55;98601.06;4048141;29;21309;-83
2024/03/22 08:18:32;;;;;;;12.80;10.53;;;;;;;17.29;70.63;98598.25;4045053;29;21305;-83
2024/03/22 08:20:34;;;;;;;14.80;11.47;;;;;;;17.18;71.85;98595.69;4056080;29;20686;-82
2024/03/22 08:22:37;;;;;;;15.33;11.20;;;;;;;17.20;73.02;98591.09;4037782;29;20620;-83
2024/03/22 08:24:39;;;;;;;13.20;10.40;;;;;;;17.22;72.14;98591.84;4056597;29;20677;-83
2024/03/22 08:26:45;;;;;;;14.00;12.50;;;;;;;17.25;71.56;98592.41;4045403;29;20644;-83
2024/03/22 08:28:48;;;;;;;15.13;11.30;;;;;;;17.22;70.88;98587.41;4045636;29;21234;-83
2024/03/22 08:30:49;;;;;;;19.30;11.83;;;;;;;17.13;70.32;98582.91;4028949;29;21023;-83
2024/03/22 08:32:52;;;;;;;14.20;11.40;;;;;;;17.24;72.34;98580.19;4061083;29;20637;-83
2024/03/22 08:34:53;;;;;;;14.67;11.10;;;;;;;17.40;73.29;98587.63;4062541;29;20622;-83
2024/03/22 08:36:56;;;;;;;11.77;9.67;;;;;;;17.40;72.22;98575.25;4060896;29;20657;-83
2024/03/22 08:38:58;;;;;;;13.40;9.90;;;;;;;17.36;72.01;98575.66;4063173;29;20631;-83
2024/03/22 08:40:59;;;;;;;14.47;9.80;;;;;;;17.32;72.96;98572.47;4062375;29;20627;-83
2024/03/22 08:43:02;;;;;;;13.40;10.93;;;;;;;17.31;73.44;98568.16;4047044;29;20653;-84
2024/03/22 08:45:05;;;;;;;12.90;10.83;;;;;;;17.30;73.26;98560.38;4031252;29;21411;-84
2024/03/22 08:47:07;;;;;;;14.80;10.90;;;;;;;17.25;72.79;98562.59;4060931;29;20631;-84
2024/03/22 08:49:09;;;;;;;18.07;14.07;;;;;;;17.24;74.73;98564.38;4047216;29;21052;-84
2024/03/22 08:51:11;;;;;;;12.87;9.13;;;;;;;17.23;72.49;98562.72;4045199;29;20660;-84
2024/03/22 08:53:12;;;;;;;11.30;8.83;;;;;;;17.14;72.25;98555.56;4046369;29;21035;-84
2024/03/22 08:55:16;;;;;;;12.93;9.37;;;;;;;17.04;71.55;98552.06;4046919;29;20628;-84
2024/03/22 08:57:17;;;;;;;11.63;9.00;;;;;;;17.05;73.34;98548.47;4046331;29;20627;-84
2024/03/22 08:59:20;;;;;;;14.23;9.87;;;;;;;17.01;72.90;98547.06;4044438;29;20633;-84
2024/03/22 09:01:22;;;;;;;12.77;9.20;;;;;;;17.05;71.73;98548.47;4058738;29;21257;-84
2024/03/22 09:03:24;;;;;;;10.60;9.50;;;;;;;17.13;72.41;98539.91;4045252;29;20638;-85
2024/03/22 09:05:25;;;;;;;10.70;9.17;;;;;;;17.21;72.38;98543.53;4042505;29;21074;-84
2024/03/22 09:07:27;;;;;;;9.87;8.43;;;;;;;17.32;73.52;98545.25;4044999;29;20631;-84
2024/03/22 09:09:28;;;;;;;11.97;9.33;;;;;;;17.32;70.85;98542.59;4052958;29;20914;-84
2024/03/22 09:11:32;;;;;;;11.63;8.97;;;;;;;17.25;71.95;98544.13;4044013;29;20684;-84
2024/03/22 09:13:35;;;;;;;11.73;9.30;;;;;;;17.26;71.82;98544.00;4054032;29;20685;-84
2024/03/22 09:15:37;;;;;;;10.90;9.30;;;;;;;17.29;71.77;98545.50;4060351;29;20632;-84
2024/03/22 09:17:39;;;;;;;11.63;8.87;;;;;;;17.34;71.55;98543.31;4060240;29;20638;-84
2024/03/22 09:19:42;;;;;;;11.30;9.70;;;;;;;17.44;73.21;98546.78;4071960;29;20623;-84
2024/03/22 09:21:43;;;;;;;11.83;9.47;;;;;;;17.46;72.06;98543.88;4043836;29;21256;-84
2024/03/22 09:23:45;;;;;;;10.80;8.30;;;;;;;17.51;71.55;98533.78;4059735;29;20654;-84
2024/03/22 09:25:47;;;;;;;10.00;8.63;;;;;;;17.61;72.56;98531.97;4043500;29;20613;-84
2024/03/22 09:27:50;;;;;;;12.43;9.17;;;;;;;17.65;71.56;98532.53;4074348;29;21223;-84
2024/03/22 09:29:52;;;;;;;12.30;9.90;;;;;;;17.73;71.63;98525.59;4057953;29;20659;-84
2024/03/22 09:31:54;;;;;;;11.20;9.47;;;;;;;17.80;70.50;98521.44;4057894;29;20624;-84
2024/03/22 09:33:56;;;;;;;11.43;9.30;;;;;;;17.85;70.18;98521.84;4055062;29;20623;-84
2024/03/22 09:35:58;;;;;;;14.47;8.73;;;;;;;17.97;70.37;98513.66;4040206;29;21086;-84